sensor_id;sensor_type;location;lat;lon;timestamp;pressure;altitude;pressure_sealevel;temperature;humidity
79269;BME280;68714;48.586;7.772;2023-04-24T00:01:23;98856.34;;;12.49;59.84
79269;BME280;68714;48.586;7.772;2023-04-24T00:03:48;98860.50;;;12.54;60.03
79269;BME280;68714;48.586;7.772;2023-04-24T00:06:14;98852.38;;;12.57;60.03
79269;BME280;68714;48.586;7.772;2023-04-24T00:08:42;98862.56;;;12.63;59.87
79269;BME280;68714;48.586;7.772;2023-04-24T00:11:08;98853.59;;;12.65;59.92
79269;BME280;68714;48.586;7.772;2023-04-24T00:13:34;98856.03;;;12.69;60.15
79269;BME280;68714;48.586;7.772;2023-04-24T00:16:00;98855.09;;;12.70;59.92
79269;BME280;68714;48.586;7.772;2023-04-24T00:18:25;98860.47;;;12.68;60.26
79269;BME280;68714;48.586;7.772;2023-04-24T00:20:51;98854.31;;;12.67;60.08
79269;BME280;68714;48.586;7.772;2023-04-24T00:23:16;98858.88;;;12.65;60.24
79269;BME280;68714;48.586;7.772;2023-04-24T00:25:42;98861.63;;;12.64;60.43
79269;BME280;68714;48.586;7.772;2023-04-24T00:28:07;98852.06;;;12.61;60.30
79269;BME280;68714;48.586;7.772;2023-04-24T00:30:33;98845.94;;;12.61;60.48
79269;BME280;68714;48.586;7.772;2023-04-24T00:32:58;98853.88;;;12.61;60.45
79269;BME280;68714;48.586;7.772;2023-04-24T00:35:23;98857.38;;;12.61;60.90
79269;BME280;68714;48.586;7.772;2023-04-24T00:37:49;98853.97;;;12.59;60.58
79269;BME280;68714;48.586;7.772;2023-04-24T00:40:15;98867.00;;;12.62;60.70
79269;BME280;68714;48.586;7.772;2023-04-24T00:42:40;98860.78;;;12.63;60.92
79269;BME280;68714;48.586;7.772;2023-04-24T00:45:06;98853.03;;;12.60;61.21
79269;BME280;68714;48.586;7.772;2023-04-24T00:47:33;98852.94;;;12.62;61.21
79269;BME280;68714;48.586;7.772;2023-04-24T00:50:03;98862.56;;;12.63;61.33
79269;BME280;68714;48.586;7.772;2023-04-24T00:52:29;98857.47;;;12.60;61.46
79269;BME280;68714;48.586;7.772;2023-04-24T00:54:57;98860.13;;;12.60;61.43
79269;BME280;68714;48.586;7.772;2023-04-24T00:57:22;98865.50;;;12.58;61.45
79269;BME280;68714;48.586;7.772;2023-04-24T00:59:48;98873.44;;;12.58;61.55
79269;BME280;68714;48.586;7.772;2023-04-24T01:02:14;98872.72;;;12.56;62.00
79269;BME280;68714;48.586;7.772;2023-04-24T01:04:40;98875.47;;;12.55;62.00
79269;BME280;68714;48.586;7.772;2023-04-24T01:07:06;98863.38;;;12.51;61.80
79269;BME280;68714;48.586;7.772;2023-04-24T01:09:39;98867.81;;;12.50;61.92
79269;BME280;68714;48.586;7.772;2023-04-24T01:12:06;98860.91;;;12.47;62.40
79269;BME280;68714;48.586;7.772;2023-04-24T01:14:32;98865.16;;;12.50;62.49
79269;BME280;68714;48.586;7.772;2023-04-24T01:16:58;98857.13;;;12.52;62.46
79269;BME280;68714;48.586;7.772;2023-04-24T01:19:24;98859.78;;;12.52;62.67
79269;BME280;68714;48.586;7.772;2023-04-24T01:21:51;98855.31;;;12.52;62.66
79269;BME280;68714;48.586;7.772;2023-04-24T01:24:19;98863.16;;;12.54;62.69
79269;BME280;68714;48.586;7.772;2023-04-24T01:26:45;98849.00;;;12.55;62.56
79269;BME280;68714;48.586;7.772;2023-04-24T01:29:11;98854.47;;;12.52;62.59
79269;BME280;68714;48.586;7.772;2023-04-24T01:31:38;98850.13;;;12.51;62.83
79269;BME280;68714;48.586;7.772;2023-04-24T01:34:05;98839.66;;;12.49;62.51
79269;BME280;68714;48.586;7.772;2023-04-24T01:36:31;98851.06;;;12.49;62.42
79269;BME280;68714;48.586;7.772;2023-04-24T01:38:57;98846.06;;;12.45;62.81
79269;BME280;68714;48.586;7.772;2023-04-24T01:41:23;98851.47;;;12.43;62.79
79269;BME280;68714;48.586;7.772;2023-04-24T01:43:49;98848.81;;;12.43;62.46
79269;BME280;68714;48.586;7.772;2023-04-24T01:46:15;98840.16;;;12.41;63.05
79269;BME280;68714;48.586;7.772;2023-04-24T01:48:41;98838.53;;;12.39;62.74
79269;BME280;68714;48.586;7.772;2023-04-24T01:51:06;98832.31;;;12.40;62.99
79269;BME280;68714;48.586;7.772;2023-04-24T01:53:32;98834.00;;;12.41;63.11
79269;BME280;68714;48.586;7.772;2023-04-24T01:55:58;98838.13;;;12.45;62.85
79269;BME280;68714;48.586;7.772;2023-04-24T01:58:23;98836.38;;;12.45;63.05
79269;BME280;68714;48.586;7.772;2023-04-24T02:00:49;98836.47;;;12.44;63.00
79269;BME280;68714;48.586;7.772;2023-04-24T02:03:15;98832.22;;;12.41;63.32
79269;BME280;68714;48.586;7.772;2023-04-24T02:05:43;98830.31;;;12.43;63.40
79269;BME280;68714;48.586;7.772;2023-04-24T02:08:09;98833.81;;;12.44;62.93
79269;BME280;68714;48.586;7.772;2023-04-24T02:10:34;98840.88;;;12.43;63.42
79269;BME280;68714;48.586;7.772;2023-04-24T02:13:00;98838.03;;;12.46;63.27
79269;BME280;68714;48.586;7.772;2023-04-24T02:15:25;98832.75;;;12.46;63.18
79269;BME280;68714;48.586;7.772;2023-04-24T02:17:51;98839.00;;;12.45;63.60
79269;BME280;68714;48.586;7.772;2023-04-24T02:20:16;98846.94;;;12.45;63.34
79269;BME280;68714;48.586;7.772;2023-04-24T02:22:42;98842.50;;;12.46;63.57
79269;BME280;68714;48.586;7.772;2023-04-24T02:25:08;98846.94;;;12.45;63.69
79269;BME280;68714;48.586;7.772;2023-04-24T02:27:33;98846.94;;;12.45;63.28
79269;BME280;68714;48.586;7.772;2023-04-24T02:29:59;98846.84;;;12.47;63.37
79269;BME280;68714;48.586;7.772;2023-04-24T02:32:24;98852.97;;;12.47;63.64
79269;BME280;68714;48.586;7.772;2023-04-24T02:34:50;98853.06;;;12.46;63.54
79269;BME280;68714;48.586;7.772;2023-04-24T02:37:15;98866.22;;;12.47;63.70
79269;BME280;68714;48.586;7.772;2023-04-24T02:39:41;98871.69;;;12.44;63.64
79269;BME280;68714;48.586;7.772;2023-04-24T02:42:06;98865.75;;;12.41;63.86
79269;BME280;68714;48.586;7.772;2023-04-24T02:44:33;98883.22;;;12.43;63.75
79269;BME280;68714;48.586;7.772;2023-04-24T02:46:58;98902.72;;;12.42;63.66
79269;BME280;68714;48.586;7.772;2023-04-24T02:49:24;98906.50;;;12.38;63.66
79269;BME280;68714;48.586;7.772;2023-04-24T02:51:49;98906.88;;;12.32;63.99
79269;BME280;68714;48.586;7.772;2023-04-24T02:54:14;98919.38;;;12.30;63.82
79269;BME280;68714;48.586;7.772;2023-04-24T02:56:40;98922.31;;;12.25;63.93
79269;BME280;68714;48.586;7.772;2023-04-24T02:59:05;98933.38;;;12.18;64.54
79269;BME280;68714;48.586;7.772;2023-04-24T03:01:31;98937.72;;;12.04;65.47
79269;BME280;68714;48.586;7.772;2023-04-24T03:03:56;98926.00;;;11.94;65.39
79269;BME280;68714;48.586;7.772;2023-04-24T03:06:22;98921.06;;;11.88;65.27
79269;BME280;68714;48.586;7.772;2023-04-24T03:08:47;98924.91;;;11.82;65.76
79269;BME280;68714;48.586;7.772;2023-04-24T03:11:13;98927.75;;;11.79;65.85
79269;BME280;68714;48.586;7.772;2023-04-24T03:13:38;98923.50;;;11.76;65.65
79269;BME280;68714;48.586;7.772;2023-04-24T03:16:04;98926.25;;;11.75;65.57
79269;BME280;68714;48.586;7.772;2023-04-24T03:18:30;98923.59;;;11.75;65.54
79269;BME280;68714;48.586;7.772;2023-04-24T03:20:56;98920.97;;;11.75;65.24
79269;BME280;68714;48.586;7.772;2023-04-24T03:23:21;98921.72;;;11.77;64.79
79269;BME280;68714;48.586;7.772;2023-04-24T03:25:46;98922.28;;;11.82;64.65
79269;BME280;68714;48.586;7.772;2023-04-24T03:28:13;98924.75;;;11.85;64.54
79269;BME280;68714;48.586;7.772;2023-04-24T03:30:39;98914.09;;;11.87;64.17
79269;BME280;68714;48.586;7.772;2023-04-24T03:33:04;98924.47;;;11.90;63.93
79269;BME280;68714;48.586;7.772;2023-04-24T03:35:29;98929.66;;;11.91;63.36
79269;BME280;68714;48.586;7.772;2023-04-24T03:37:55;98929.84;;;11.88;62.95
79269;BME280;68714;48.586;7.772;2023-04-24T03:40:20;98936.06;;;11.87;62.78
79269;BME280;68714;48.586;7.772;2023-04-24T03:42:46;98932.84;;;11.82;62.42
79269;BME280;68714;48.586;7.772;2023-04-24T03:45:11;98927.00;;;11.77;62.51
79269;BME280;68714;48.586;7.772;2023-04-24T03:47:37;98938.69;;;11.73;61.99
79269;BME280;68714;48.586;7.772;2023-04-24T03:50:02;98939.94;;;11.67;61.94
79269;BME280;68714;48.586;7.772;2023-04-24T03:52:28;98935.75;;;11.63;61.69
79269;BME280;68714;48.586;7.772;2023-04-24T03:54:53;98943.13;;;11.58;61.43
79269;BME280;68714;48.586;7.772;2023-04-24T03:57:18;98936.31;;;11.54;61.25
79269;BME280;68714;48.586;7.772;2023-04-24T03:59:44;98935.56;;;11.52;61.31
79269;BME280;68714;48.586;7.772;2023-04-24T04:02:09;98943.78;;;11.47;61.02
79269;BME280;68714;48.586;7.772;2023-04-24T04:04:35;98943.00;;;11.45;61.23
79269;BME280;68714;48.586;7.772;2023-04-24T04:07:00;98952.81;;;11.43;60.89
79269;BME280;68714;48.586;7.772;2023-04-24T04:09:28;98956.28;;;11.43;60.98
79269;BME280;68714;48.586;7.772;2023-04-24T04:11:53;98953.75;;;11.42;61.07
79269;BME280;68714;48.586;7.772;2023-04-24T04:14:19;98967.13;;;11.39;60.51
79269;BME280;68714;48.586;7.772;2023-04-24T04:16:44;98967.13;;;11.39;60.68
79269;BME280;68714;48.586;7.772;2023-04-24T04:19:10;98966.47;;;11.35;60.03
79269;BME280;68714;48.586;7.772;2023-04-24T04:21:35;98982.22;;;11.37;59.75
79269;BME280;68714;48.586;7.772;2023-04-24T04:24:00;98986.75;;;11.35;59.43
79269;BME280;68714;48.586;7.772;2023-04-24T04:26:26;98987.59;;;11.35;59.46
79269;BME280;68714;48.586;7.772;2023-04-24T04:28:52;98999.09;;;11.34;59.34
79269;BME280;68714;48.586;7.772;2023-04-24T04:31:19;98992.88;;;11.35;59.34
79269;BME280;68714;48.586;7.772;2023-04-24T04:33:46;99001.66;;;11.36;59.45
79269;BME280;68714;48.586;7.772;2023-04-24T04:36:11;99011.94;;;11.40;59.31
79269;BME280;68714;48.586;7.772;2023-04-24T04:38:37;99010.00;;;11.44;59.17
79269;BME280;68714;48.586;7.772;2023-04-24T04:41:03;99005.38;;;11.48;59.12
79269;BME280;68714;48.586;7.772;2023-04-24T04:43:28;99010.41;;;11.52;59.22
79269;BME280;68714;48.586;7.772;2023-04-24T04:45:53;99012.75;;;11.57;59.20
79269;BME280;68714;48.586;7.772;2023-04-24T04:48:21;99017.78;;;11.62;59.16
79269;BME280;68714;48.586;7.772;2023-04-24T04:50:46;99020.25;;;11.65;59.17
79269;BME280;68714;48.586;7.772;2023-04-24T04:53:12;99019.03;;;11.70;59.23
79269;BME280;68714;48.586;7.772;2023-04-24T04:55:37;99019.88;;;11.71;59.30
79269;BME280;68714;48.586;7.772;2023-04-24T04:58:03;99021.59;;;11.72;59.19
79269;BME280;68714;48.586;7.772;2023-04-24T05:00:28;99031.03;;;11.76;58.96
79269;BME280;68714;48.586;7.772;2023-04-24T05:02:59;99032.66;;;11.78;59.12
79269;BME280;68714;48.586;7.772;2023-04-24T05:05:27;99039.38;;;11.84;58.78
79269;BME280;68714;48.586;7.772;2023-04-24T05:07:52;99033.81;;;11.89;58.81
79269;BME280;68714;48.586;7.772;2023-04-24T05:10:18;99044.28;;;11.90;58.64
79269;BME280;68714;48.586;7.772;2023-04-24T05:12:43;99045.66;;;11.98;58.72
79269;BME280;68714;48.586;7.772;2023-04-24T05:15:09;99047.16;;;12.02;58.61
79269;BME280;68714;48.586;7.772;2023-04-24T05:17:35;99055.97;;;12.02;58.83
79269;BME280;68714;48.586;7.772;2023-04-24T05:20:01;99056.72;;;12.04;58.48
79269;BME280;68714;48.586;7.772;2023-04-24T05:22:26;99063.03;;;12.02;58.35
79269;BME280;68714;48.586;7.772;2023-04-24T05:24:52;99060.56;;;11.99;58.47
79269;BME280;68714;48.586;7.772;2023-04-24T05:27:18;99076.84;;;11.91;58.78
79269;BME280;68714;48.586;7.772;2023-04-24T05:29:44;99079.88;;;11.85;58.70
79269;BME280;68714;48.586;7.772;2023-04-24T05:32:10;99086.34;;;11.79;58.65
79269;BME280;68714;48.586;7.772;2023-04-24T05:34:35;99085.59;;;11.77;58.58
79269;BME280;68714;48.586;7.772;2023-04-24T05:37:01;99087.41;;;11.76;58.50
79269;BME280;68714;48.586;7.772;2023-04-24T05:39:27;99084.94;;;11.73;57.97
79269;BME280;68714;48.586;7.772;2023-04-24T05:41:52;99091.44;;;11.68;57.24
79269;BME280;68714;48.586;7.772;2023-04-24T05:44:17;99085.47;;;11.64;57.54
79269;BME280;68714;48.586;7.772;2023-04-24T05:46:43;99099.63;;;11.63;57.05
79269;BME280;68714;48.586;7.772;2023-04-24T05:49:08;99103.19;;;11.62;57.15
79269;BME280;68714;48.586;7.772;2023-04-24T05:51:34;99102.34;;;11.62;56.94
79269;BME280;68714;48.586;7.772;2023-04-24T05:53:59;99103.09;;;11.64;57.40
79269;BME280;68714;48.586;7.772;2023-04-24T05:56:25;99107.47;;;11.65;57.08
79269;BME280;68714;48.586;7.772;2023-04-24T05:58:51;99113.75;;;11.62;57.07
79269;BME280;68714;48.586;7.772;2023-04-24T06:01:16;99115.56;;;11.62;56.71
79269;BME280;68714;48.586;7.772;2023-04-24T06:03:42;99122.66;;;11.61;56.85
79269;BME280;68714;48.586;7.772;2023-04-24T06:06:07;99112.94;;;11.62;57.05
79269;BME280;68714;48.586;7.772;2023-04-24T06:08:34;99127.69;;;11.66;57.00
79269;BME280;68714;48.586;7.772;2023-04-24T06:10:59;99121.44;;;11.67;56.95
79269;BME280;68714;48.586;7.772;2023-04-24T06:13:25;99122.22;;;11.69;57.03
79269;BME280;68714;48.586;7.772;2023-04-24T06:15:51;99125.53;;;11.72;57.13
79269;BME280;68714;48.586;7.772;2023-04-24T06:18:16;99125.25;;;11.77;56.94
79269;BME280;68714;48.586;7.772;2023-04-24T06:20:43;99132.84;;;11.83;56.38
79269;BME280;68714;48.586;7.772;2023-04-24T06:23:08;99133.63;;;11.85;56.45
79269;BME280;68714;48.586;7.772;2023-04-24T06:25:34;99138.91;;;11.85;56.41
79269;BME280;68714;48.586;7.772;2023-04-24T06:28:00;99146.66;;;11.88;56.26
79269;BME280;68714;48.586;7.772;2023-04-24T06:30:26;99141.88;;;11.95;55.90
79269;BME280;68714;48.586;7.772;2023-04-24T06:32:53;99148.53;;;12.02;55.71
79269;BME280;68714;48.586;7.772;2023-04-24T06:35:18;99139.19;;;12.11;54.79
79269;BME280;68714;48.586;7.772;2023-04-24T06:37:44;99144.88;;;12.19;53.89
79269;BME280;68714;48.586;7.772;2023-04-24T06:40:10;99138.38;;;12.25;53.12
79269;BME280;68714;48.586;7.772;2023-04-24T06:42:35;99147.84;;;12.29;53.02
79269;BME280;68714;48.586;7.772;2023-04-24T06:45:01;99148.00;;;12.26;52.74
79269;BME280;68714;48.586;7.772;2023-04-24T06:47:27;99174.56;;;12.24;52.66
79269;BME280;68714;48.586;7.772;2023-04-24T06:49:53;99157.84;;;12.24;51.84
79269;BME280;68714;48.586;7.772;2023-04-24T06:52:19;99159.53;;;12.25;52.54
79269;BME280;68714;48.586;7.772;2023-04-24T06:54:44;99168.16;;;12.28;52.57
79269;BME280;68714;48.586;7.772;2023-04-24T06:57:10;99177.78;;;12.29;52.31
79269;BME280;68714;48.586;7.772;2023-04-24T06:59:36;99166.16;;;12.32;51.89
79269;BME280;68714;48.586;7.772;2023-04-24T07:02:02;99160.88;;;12.32;51.45
79269;BME280;68714;48.586;7.772;2023-04-24T07:04:30;99171.28;;;12.35;51.81
79269;BME280;68714;48.586;7.772;2023-04-24T07:06:56;99176.59;;;12.49;52.08
79269;BME280;68714;48.586;7.772;2023-04-24T07:09:23;99192.50;;;12.64;52.21
79269;BME280;68714;48.586;7.772;2023-04-24T07:11:51;99187.22;;;12.78;52.00
79269;BME280;68714;48.586;7.772;2023-04-24T07:14:17;99207.66;;;12.91;51.26
79269;BME280;68714;48.586;7.772;2023-04-24T07:16:42;99201.72;;;12.87;50.75
79269;BME280;68714;48.586;7.772;2023-04-24T07:19:08;99180.81;;;12.82;50.46
79269;BME280;68714;48.586;7.772;2023-04-24T07:21:34;99216.53;;;12.75;50.09
79269;BME280;68714;48.586;7.772;2023-04-24T07:23:59;99202.91;;;12.67;50.23
79269;BME280;68714;48.586;7.772;2023-04-24T07:26:26;99203.19;;;12.62;49.98
79269;BME280;68714;48.586;7.772;2023-04-24T07:28:52;99202.72;;;12.56;50.09
79269;BME280;68714;48.586;7.772;2023-04-24T07:31:17;99216.38;;;12.48;49.50
79269;BME280;68714;48.586;7.772;2023-04-24T07:33:42;99209.59;;;12.44;50.02
79269;BME280;68714;48.586;7.772;2023-04-24T07:36:08;99215.81;;;12.43;49.96
79269;BME280;68714;48.586;7.772;2023-04-24T07:38:33;99223.75;;;12.43;49.97
79269;BME280;68714;48.586;7.772;2023-04-24T07:40:59;99209.69;;;12.42;49.95
79269;BME280;68714;48.586;7.772;2023-04-24T07:43:24;99212.41;;;12.41;50.05
79269;BME280;68714;48.586;7.772;2023-04-24T07:45:51;99215.44;;;12.49;50.20
79269;BME280;68714;48.586;7.772;2023-04-24T07:48:19;99221.25;;;12.56;49.79
79269;BME280;68714;48.586;7.772;2023-04-24T07:50:47;99222.56;;;12.63;49.52
79269;BME280;68714;48.586;7.772;2023-04-24T07:53:12;99229.13;;;12.72;48.56
79269;BME280;68714;48.586;7.772;2023-04-24T07:55:38;99233.28;;;12.76;47.94
79269;BME280;68714;48.586;7.772;2023-04-24T07:58:03;99228.44;;;12.68;48.21
79269;BME280;68714;48.586;7.772;2023-04-24T08:00:31;99245.91;;;12.56;47.88
79269;BME280;68714;48.586;7.772;2023-04-24T08:02:56;99240.53;;;12.58;47.80
79269;BME280;68714;48.586;7.772;2023-04-24T08:05:21;99235.22;;;12.58;48.54
79269;BME280;68714;48.586;7.772;2023-04-24T08:07:48;99256.41;;;12.58;47.44
79269;BME280;68714;48.586;7.772;2023-04-24T08:10:15;99251.56;;;12.50;47.43
79269;BME280;68714;48.586;7.772;2023-04-24T08:12:41;99253.19;;;12.53;47.97
79269;BME280;68714;48.586;7.772;2023-04-24T08:15:06;99256.59;;;12.55;47.06
79269;BME280;68714;48.586;7.772;2023-04-24T08:17:34;99274.69;;;12.46;47.37
79269;BME280;68714;48.586;7.772;2023-04-24T08:20:00;99256.53;;;12.40;47.07
79269;BME280;68714;48.586;7.772;2023-04-24T08:22:29;99269.34;;;12.32;46.48
79269;BME280;68714;48.586;7.772;2023-04-24T08:24:55;99275.59;;;12.31;47.87
79269;BME280;68714;48.586;7.772;2023-04-24T08:27:22;99282.19;;;12.24;47.86
79269;BME280;68714;48.586;7.772;2023-04-24T08:29:47;99284.66;;;12.27;48.17
79269;BME280;68714;48.586;7.772;2023-04-24T08:32:13;99285.41;;;12.29;47.64
79269;BME280;68714;48.586;7.772;2023-04-24T08:34:38;99286.94;;;12.33;48.13
79269;BME280;68714;48.586;7.772;2023-04-24T08:37:04;99282.22;;;12.38;48.48
79269;BME280;68714;48.586;7.772;2023-04-24T08:39:29;99288.72;;;12.48;48.61
79269;BME280;68714;48.586;7.772;2023-04-24T08:41:55;99295.69;;;12.49;48.37
79269;BME280;68714;48.586;7.772;2023-04-24T08:44:21;99308.78;;;12.53;48.51
79269;BME280;68714;48.586;7.772;2023-04-24T08:46:48;99296.78;;;12.61;48.52
79269;BME280;68714;48.586;7.772;2023-04-24T08:49:15;99312.38;;;12.66;48.68
79269;BME280;68714;48.586;7.772;2023-04-24T08:51:43;99316.09;;;12.47;47.43
79269;BME280;68714;48.586;7.772;2023-04-24T08:54:09;99310.63;;;12.51;49.00
79269;BME280;68714;48.586;7.772;2023-04-24T08:56:36;99322.09;;;12.51;49.16
79269;BME280;68714;48.586;7.772;2023-04-24T08:59:05;99319.59;;;12.48;48.87
79269;BME280;68714;48.586;7.772;2023-04-24T09:01:32;99320.38;;;12.50;49.35
79269;BME280;68714;48.586;7.772;2023-04-24T09:04:01;99324.47;;;12.56;49.11
79269;BME280;68714;48.586;7.772;2023-04-24T09:06:27;99327.97;;;12.56;49.48
79269;BME280;68714;48.586;7.772;2023-04-24T09:08:53;99333.94;;;12.60;49.28
79269;BME280;68714;48.586;7.772;2023-04-24T09:11:21;99322.88;;;12.67;49.14
79269;BME280;68714;48.586;7.772;2023-04-24T09:13:51;99333.56;;;12.66;49.14
79269;BME280;68714;48.586;7.772;2023-04-24T09:16:16;99337.28;;;12.63;49.17
79269;BME280;68714;48.586;7.772;2023-04-24T09:18:42;99331.09;;;12.63;49.51
79269;BME280;68714;48.586;7.772;2023-04-24T09:21:08;99325.44;;;12.69;49.55
79269;BME280;68714;48.586;7.772;2023-04-24T09:23:34;99331.91;;;12.79;49.52
79269;BME280;68714;48.586;7.772;2023-04-24T09:26:02;99341.22;;;12.87;49.30
79269;BME280;68714;48.586;7.772;2023-04-24T09:28:32;99332.50;;;12.84;49.58
79269;BME280;68714;48.586;7.772;2023-04-24T09:31:15;99340.34;;;12.86;49.25
79269;BME280;68714;48.586;7.772;2023-04-24T09:33:57;99330.34;;;12.91;48.92
79269;BME280;68714;48.586;7.772;2023-04-24T09:36:32;99344.25;;;12.95;49.57
79269;BME280;68714;48.586;7.772;2023-04-24T09:39:02;99340.50;;;12.99;48.92
79269;BME280;68714;48.586;7.772;2023-04-24T09:41:29;99351.34;;;12.94;48.60
79269;BME280;68714;48.586;7.772;2023-04-24T09:43:56;99353.41;;;12.89;48.43
79269;BME280;68714;48.586;7.772;2023-04-24T09:46:29;99343.88;;;12.87;47.32
79269;BME280;68714;48.586;7.772;2023-04-24T09:48:56;99359.56;;;12.90;48.75
79269;BME280;68714;48.586;7.772;2023-04-24T09:51:36;99355.50;;;12.98;47.46
79269;BME280;68714;48.586;7.772;2023-04-24T09:54:02;99362.03;;;12.93;47.46
79269;BME280;68714;48.586;7.772;2023-04-24T09:56:32;99363.78;;;13.08;48.67
79269;BME280;68714;48.586;7.772;2023-04-24T09:59:05;99348.16;;;13.03;47.42
79269;BME280;68714;48.586;7.772;2023-04-24T10:01:31;99357.31;;;12.98;48.58
79269;BME280;68714;48.586;7.772;2023-04-24T10:04:28;99360.16;;;12.95;47.63
79269;BME280;68714;48.586;7.772;2023-04-24T10:06:56;99359.75;;;12.87;48.50
79269;BME280;68714;48.586;7.772;2023-04-24T10:09:24;99370.88;;;12.77;48.53
79269;BME280;68714;48.586;7.772;2023-04-24T10:11:51;99370.19;;;12.74;48.55
79269;BME280;68714;48.586;7.772;2023-04-24T10:14:27;99376.72;;;12.68;48.08
79269;BME280;68714;48.586;7.772;2023-04-24T10:17:00;99369.03;;;12.63;48.90
79269;BME280;68714;48.586;7.772;2023-04-24T10:19:26;99376.09;;;12.63;48.60
79269;BME280;68714;48.586;7.772;2023-04-24T10:21:53;99374.34;;;12.63;49.25
79269;BME280;68714;48.586;7.772;2023-04-24T10:24:20;99369.25;;;12.75;49.07
79269;BME280;68714;48.586;7.772;2023-04-24T10:26:46;99371.72;;;12.78;48.94
79269;BME280;68714;48.586;7.772;2023-04-24T10:29:16;99383.78;;;12.83;49.16
79269;BME280;68714;48.586;7.772;2023-04-24T10:31:42;99376.13;;;12.93;49.03
79269;BME280;68714;48.586;7.772;2023-04-24T10:34:11;99374.66;;;13.03;48.54
79269;BME280;68714;48.586;7.772;2023-04-24T10:36:42;99381.78;;;13.17;48.45
79269;BME280;68714;48.586;7.772;2023-04-24T10:39:11;99375.66;;;13.31;47.80
79269;BME280;68714;48.586;7.772;2023-04-24T10:41:38;99381.38;;;13.40;47.90
79269;BME280;68714;48.586;7.772;2023-04-24T10:46:31;99380.44;;;13.55;47.96
79269;BME280;68714;48.586;7.772;2023-04-24T10:48:57;99382.16;;;13.56;47.80
79269;BME280;68714;48.586;7.772;2023-04-24T10:51:24;99398.53;;;13.48;47.83
79269;BME280;68714;48.586;7.772;2023-04-24T10:54:28;99396.06;;;13.45;46.56
79269;BME280;68714;48.586;7.772;2023-04-24T10:59:50;99400.81;;;13.69;47.83
79269;BME280;68714;48.586;7.772;2023-04-24T11:02:17;99400.44;;;13.89;48.02
79269;BME280;68714;48.586;7.772;2023-04-24T11:04:43;99397.56;;;14.07;47.86
79269;BME280;68714;48.586;7.772;2023-04-24T11:07:09;99397.28;;;14.26;47.37
79269;BME280;68714;48.586;7.772;2023-04-24T11:09:36;99405.81;;;14.17;46.93
79269;BME280;68714;48.586;7.772;2023-04-24T11:12:10;99406.59;;;14.04;47.04
79269;BME280;68714;48.586;7.772;2023-04-24T11:17:34;99407.25;;;13.65;46.14
79269;BME280;68714;48.586;7.772;2023-04-24T11:20:07;99406.00;;;13.56;47.13
79269;BME280;68714;48.586;7.772;2023-04-24T11:22:38;99405.34;;;13.52;47.20
79269;BME280;68714;48.586;7.772;2023-04-24T11:25:05;99406.84;;;13.42;47.42
79269;BME280;68714;48.586;7.772;2023-04-24T11:27:38;99409.34;;;13.29;47.00
79269;BME280;68714;48.586;7.772;2023-04-24T11:30:07;99413.22;;;13.24;47.45
79269;BME280;68714;48.586;7.772;2023-04-24T11:33:11;99411.94;;;13.15;46.43
79269;BME280;68714;48.586;7.772;2023-04-24T11:35:42;99414.03;;;13.10;47.53
79269;BME280;68714;48.586;7.772;2023-04-24T11:38:16;99432.94;;;13.03;47.81
79269;BME280;68714;48.586;7.772;2023-04-24T11:40:42;99419.69;;;13.03;47.95
79269;BME280;68714;48.586;7.772;2023-04-24T11:43:11;99414.38;;;13.03;47.82
79269;BME280;68714;48.586;7.772;2023-04-24T11:48:49;99422.88;;;12.94;47.04
79269;BME280;68714;48.586;7.772;2023-04-24T11:51:14;99418.69;;;12.90;46.96
79269;BME280;68714;48.586;7.772;2023-04-24T11:53:40;99426.81;;;12.87;47.26
79269;BME280;68714;48.586;7.772;2023-04-24T11:56:08;99418.41;;;12.95;47.35
79269;BME280;68714;48.586;7.772;2023-04-24T11:58:38;99415.31;;;13.02;46.72
79269;BME280;68714;48.586;7.772;2023-04-24T12:01:04;99407.28;;;13.04;47.03
79269;BME280;68714;48.586;7.772;2023-04-24T12:03:31;99421.00;;;13.11;47.03
79269;BME280;68714;48.586;7.772;2023-04-24T12:06:09;99416.78;;;13.08;46.47
79269;BME280;68714;48.586;7.772;2023-04-24T12:08:38;99415.63;;;13.12;47.44
79269;BME280;68714;48.586;7.772;2023-04-24T12:11:05;99406.66;;;13.15;46.78
79269;BME280;68714;48.586;7.772;2023-04-24T12:13:34;99418.09;;;13.15;46.50
79269;BME280;68714;48.586;7.772;2023-04-24T12:16:03;99415.22;;;13.20;46.81
79269;BME280;68714;48.586;7.772;2023-04-24T12:18:31;99415.69;;;13.27;46.62
79269;BME280;68714;48.586;7.772;2023-04-24T12:21:15;99414.41;;;13.34;45.08
79269;BME280;68714;48.586;7.772;2023-04-24T12:23:42;99414.81;;;13.42;46.63
79269;BME280;68714;48.586;7.772;2023-04-24T12:26:08;99416.16;;;13.49;46.54
79269;BME280;68714;48.586;7.772;2023-04-24T12:28:38;99422.09;;;13.53;46.07
79269;BME280;68714;48.586;7.772;2023-04-24T12:31:07;99424.38;;;13.59;45.85
79269;BME280;68714;48.586;7.772;2023-04-24T12:33:34;99409.69;;;13.53;45.97
79269;BME280;68714;48.586;7.772;2023-04-24T12:36:01;99415.88;;;13.54;45.84
79269;BME280;68714;48.586;7.772;2023-04-24T12:38:29;99415.09;;;13.52;45.86
79269;BME280;68714;48.586;7.772;2023-04-24T12:41:09;99400.16;;;13.51;45.66
79269;BME280;68714;48.586;7.772;2023-04-24T12:43:37;99400.34;;;13.62;46.20
79269;BME280;68714;48.586;7.772;2023-04-24T12:46:05;99412.00;;;13.74;46.19
79269;BME280;68714;48.586;7.772;2023-04-24T14:38:10;99315.28;;;14.76;42.07
79269;BME280;68714;48.586;7.772;2023-04-24T14:40:37;99370.19;;;14.48;41.52
79269;BME280;68714;48.586;7.772;2023-04-24T14:43:06;99346.66;;;14.29;42.97
79269;BME280;68714;48.586;7.772;2023-04-24T14:45:32;99359.53;;;14.21;43.66
79269;BME280;68714;48.586;7.772;2023-04-24T14:47:57;99364.16;;;14.04;44.90
79269;BME280;68714;48.586;7.772;2023-04-24T14:50:23;99362.38;;;13.90;45.70
79269;BME280;68714;48.586;7.772;2023-04-24T14:52:53;99349.50;;;13.84;46.31
79269;BME280;68714;48.586;7.772;2023-04-24T14:55:18;99359.13;;;13.85;46.79
79269;BME280;68714;48.586;7.772;2023-04-24T14:57:44;99348.53;;;13.85;46.94
79269;BME280;68714;48.586;7.772;2023-04-24T15:00:10;99360.91;;;13.99;46.88